createdAt,value
2023-01-05T00:00:27.466Z,100574.94
2023-01-05T00:01:28.982Z,100561.47
2023-01-05T00:02:30.626Z,100564.84
2023-01-05T00:03:32.188Z,100557.53
2023-01-05T00:04:33.678Z,100546.06
2023-01-05T00:05:35.235Z,100547.72
2023-01-05T00:06:37.409Z,100542.66
2023-01-05T00:07:39.003Z,100542.41
2023-01-05T00:08:40.528Z,100551.94
2023-01-05T00:09:41.981Z,100558.66
2023-01-05T00:11:01.980Z,100542.69
2023-01-05T00:12:22.268Z,100551.66
2023-01-05T00:13:42.211Z,100549.13
2023-01-05T00:15:02.144Z,100546.88
2023-01-05T00:16:22.330Z,100547.44
2023-01-05T00:17:42.661Z,100545.22
2023-01-05T00:19:02.550Z,100546.88
2023-01-05T00:20:22.915Z,100547.16
2023-01-05T00:21:43.159Z,100544.09
2023-01-05T00:22:51.359Z,100544.38
2023-01-05T00:23:52.799Z,100539.06
2023-01-05T00:24:54.230Z,100536.53
2023-01-05T00:25:55.716Z,100540.72
2023-01-05T00:26:57.310Z,100540.72
2023-01-05T00:27:59.067Z,100542.69
2023-01-05T00:29:00.615Z,100531.75
2023-01-05T00:30:03.752Z,100526.16
2023-01-05T00:31:05.279Z,100524.78
2023-01-05T00:32:06.826Z,100527.28
2023-01-05T00:33:09.216Z,100528.13
2023-01-05T00:34:10.718Z,100525.91
2023-01-05T00:35:12.356Z,100532.34
2023-01-05T00:36:13.860Z,100521.72
2023-01-05T00:37:15.412Z,100521.44
2023-01-05T00:38:16.973Z,100526.75
2023-01-05T00:39:18.420Z,100541.88
2023-01-05T00:40:20.347Z,100532.34
2023-01-05T00:41:21.894Z,100544.13
2023-01-05T00:42:23.401Z,100535.44
2023-01-05T00:43:24.969Z,100547.47
2023-01-05T00:44:26.426Z,100548.59
2023-01-05T00:45:28.789Z,100542.72
2023-01-05T00:46:30.428Z,100550.59
2023-01-05T00:47:31.889Z,100540.22
2023-01-05T00:48:33.505Z,100539.06
2023-01-05T00:49:34.976Z,100543.00
2023-01-05T00:50:36.479Z,100546.09
2023-01-05T00:51:38.023Z,100546.94
2023-01-05T00:52:39.517Z,100551.13
2023-01-05T00:53:41.079Z,100532.38
2023-01-05T00:54:42.724Z,100543.03
2023-01-05T00:55:44.348Z,100544.44
2023-01-05T00:56:46.759Z,100542.44
2023-01-05T00:57:48.723Z,100541.91
2023-01-05T00:58:52.832Z,100542.47
2023-01-05T00:59:54.675Z,100543.03
2023-01-05T01:00:56.136Z,100543.31
2023-01-05T01:01:57.925Z,100541.63
2023-01-05T01:02:59.471Z,100545.81
2023-01-05T01:04:01.075Z,100537.97
2023-01-05T01:05:02.561Z,100542.72
2023-01-05T01:06:05.308Z,100541.34
2023-01-05T01:07:06.831Z,100534.06
2023-01-05T01:08:08.339Z,100542.47
2023-01-05T01:09:10.038Z,100543.03
2023-01-05T01:10:12.823Z,100545.84
2023-01-05T01:11:16.598Z,100541.91
2023-01-05T01:12:18.059Z,100534.34
2023-01-05T01:13:19.525Z,100540.22
2023-01-05T01:14:21.132Z,100537.16
2023-01-05T01:15:24.133Z,100532.41
2023-01-05T01:16:25.656Z,100531.25
2023-01-05T01:17:27.176Z,100517.81
2023-01-05T01:18:28.709Z,100525.97
2023-01-05T01:19:30.268Z,100535.47
2023-01-05T01:20:31.767Z,100526.22
2023-01-05T01:21:33.279Z,100529.03
2023-01-05T01:22:34.897Z,100531.84
2023-01-05T01:23:39.497Z,100525.09
2023-01-05T01:24:41.011Z,100527.63
2023-01-05T01:25:42.505Z,100525.09
2023-01-05T01:26:44.054Z,100527.91
2023-01-05T01:27:45.525Z,100532.94
2023-01-05T01:28:47.603Z,100522.28
2023-01-05T01:29:49.088Z,100525.97
2023-01-05T01:30:50.819Z,100530.16
2023-01-05T01:31:52.752Z,100526.22
2023-01-05T01:32:54.314Z,100528.47
2023-01-05T01:33:55.838Z,100528.47
2023-01-05T01:34:57.373Z,100524.84
2023-01-05T01:35:59.104Z,100519.53
2023-01-05T01:38:07.025Z,100509.16
2023-01-05T01:39:08.670Z,100516.16
2023-01-05T01:40:13.294Z,100507.19
2023-01-05T01:41:14.935Z,100518.69
2023-01-05T01:42:16.791Z,100526.53
2023-01-05T01:43:20.816Z,100525.41
2023-01-05T01:44:40.984Z,100515.03
2023-01-05T01:45:42.664Z,100531.84
2023-01-05T01:46:44.236Z,100523.44
2023-01-05T01:47:47.660Z,100536.63
2023-01-05T01:49:02.230Z,100518.09
2023-01-05T01:50:05.416Z,100534.34
2023-01-05T01:51:08.402Z,100519.22
2023-01-05T01:52:10.621Z,100522.84
2023-01-05T01:53:14.109Z,100543.91
2023-01-05T01:54:15.983Z,100516.72
2023-01-05T01:55:17.513Z,100529.06
2023-01-05T01:56:19.346Z,100540.81
2023-01-05T01:57:20.858Z,100534.66
2023-01-05T01:58:23.296Z,100541.63
2023-01-05T01:59:24.827Z,100539.69
2023-01-05T02:00:26.472Z,100541.38
2023-01-05T02:01:28.218Z,100530.44
2023-01-05T02:02:30.228Z,100531.00
2023-01-05T02:03:31.853Z,100542.75
2023-01-05T02:04:34.257Z,100534.63
2023-01-05T02:05:38.049Z,100539.38
2023-01-05T02:06:39.603Z,100544.75
2023-01-05T02:07:43.589Z,100544.16
2023-01-05T02:08:47.110Z,100548.34
2023-01-05T02:09:49.047Z,100547.53
2023-01-05T02:10:56.179Z,100549.75
2023-01-05T02:12:33.178Z,100553.94
2023-01-05T02:13:37.380Z,100559.28
2023-01-05T02:14:42.314Z,100544.13
2023-01-05T02:15:52.855Z,100557.56
2023-01-05T02:17:03.475Z,100545.78
2023-01-05T02:18:11.071Z,100557.00
2023-01-05T02:19:15.346Z,100545.22
2023-01-05T02:20:22.253Z,100543.25
2023-01-05T02:21:47.309Z,100552.50
2023-01-05T02:22:54.675Z,100555.84
2023-01-05T02:24:11.398Z,100547.16
2023-01-05T02:25:21.447Z,100543.50
2023-01-05T02:26:28.741Z,100548.81
2023-01-05T02:27:30.255Z,100548.53
2023-01-05T02:28:50.600Z,100539.53
2023-01-05T02:29:52.835Z,100543.72
2023-01-05T02:30:59.721Z,100552.16
2023-01-05T02:32:15.579Z,100544.03
2023-01-05T02:33:25.891Z,100544.56
2023-01-05T02:34:28.436Z,100541.47
2023-01-05T02:35:35.789Z,100544.28
2023-01-05T02:36:37.349Z,100549.06
2023-01-05T02:37:41.378Z,100556.34
2023-01-05T02:38:47.022Z,100546.84
2023-01-05T02:39:51.525Z,100548.50
2023-01-05T02:40:54.710Z,100557.78
2023-01-05T02:42:08.773Z,100559.16
2023-01-05T02:43:10.672Z,100556.34
2023-01-05T02:44:12.361Z,100554.13
2023-01-05T02:45:14.053Z,100547.66
2023-01-05T02:46:15.578Z,100553.84
2023-01-05T02:47:27.809Z,100547.94
2023-01-05T02:48:30.475Z,100540.94
2023-01-05T02:49:32.759Z,100540.94
2023-01-05T02:50:40.366Z,100540.38
2023-01-05T02:51:46.801Z,100537.81
2023-01-05T02:52:51.042Z,100547.38
2023-01-05T02:53:58.471Z,100553.00
2023-01-05T02:55:01.414Z,100556.38
2023-01-05T02:56:02.918Z,100558.91
2023-01-05T02:57:16.046Z,100558.59
2023-01-05T02:58:19.307Z,100565.91
2023-01-05T02:59:36.604Z,100573.19
2023-01-05T03:00:42.148Z,100569.84
2023-01-05T03:01:45.849Z,100570.38
2023-01-05T03:02:49.572Z,100574.31
2023-01-05T03:04:01.633Z,100568.72
2023-01-05T03:05:10.270Z,100563.69
2023-01-05T03:06:20.071Z,100571.25
2023-01-05T03:07:24.216Z,100568.16
2023-01-05T03:08:32.452Z,100565.09
2023-01-05T03:09:37.014Z,100570.16
2023-01-05T03:11:03.307Z,100562.28
2023-01-05T03:12:29.561Z,100560.31
2023-01-05T03:13:43.128Z,100567.09
2023-01-05T03:14:50.164Z,100556.13
2023-01-05T03:15:51.801Z,100553.59
2023-01-05T03:16:53.365Z,100552.47
2023-01-05T03:17:55.345Z,100560.34
2023-01-05T03:19:15.452Z,100562.31
2023-01-05T03:20:18.215Z,100562.03
2023-01-05T03:21:19.689Z,100564.00
2023-01-05T03:22:42.901Z,100571.00
2023-01-05T03:24:03.476Z,100575.47
2023-01-05T03:25:24.724Z,100572.97
2023-01-05T03:26:45.956Z,100565.97
2023-01-05T03:28:06.281Z,100571.56
2023-01-05T03:29:26.403Z,100577.72
2023-01-05T03:30:51.160Z,100577.19
2023-01-05T03:32:14.931Z,100572.69
2023-01-05T03:33:41.888Z,100576.34
2023-01-05T03:35:05.854Z,100576.03
2023-01-05T03:36:07.968Z,100589.53
2023-01-05T03:37:10.609Z,100589.53
2023-01-05T03:38:18.590Z,100587.56
2023-01-05T03:39:21.359Z,100586.72
2023-01-05T03:40:24.775Z,100590.38
2023-01-05T03:41:28.065Z,100584.75
2023-01-05T03:42:31.869Z,100576.63
2023-01-05T03:43:36.553Z,100584.22
2023-01-05T03:44:40.258Z,100586.16
2023-01-05T03:45:43.588Z,100589.25
2023-01-05T03:46:51.107Z,100581.97
2023-01-05T03:47:52.586Z,100587.03
2023-01-05T03:48:59.416Z,100588.16
2023-01-05T03:50:01.697Z,100575.81
2023-01-05T03:51:05.923Z,100581.69
2023-01-05T03:52:09.155Z,100583.38
2023-01-05T03:53:11.727Z,100588.72
2023-01-05T03:54:13.775Z,100583.38
2023-01-05T03:55:16.643Z,100587.03
2023-01-05T03:56:18.663Z,100578.63
2023-01-05T03:57:20.187Z,100586.19
2023-01-05T03:58:21.915Z,100587.56
2023-01-05T03:59:24.791Z,100590.09
2023-01-05T04:00:26.683Z,100591.81
2023-01-05T04:01:36.001Z,100603.03
2023-01-05T04:02:38.383Z,100590.09
2023-01-05T04:03:40.875Z,100599.63
2023-01-05T04:04:43.023Z,100605.25
2023-01-05T04:05:44.889Z,100605.25
2023-01-05T04:06:46.858Z,100618.72
2023-01-05T04:07:50.101Z,100617.03
2023-01-05T04:08:52.108Z,100623.22
2023-01-05T04:09:54.350Z,100615.38
2023-01-05T04:10:56.551Z,100618.47
2023-01-05T04:11:58.246Z,100618.19
2023-01-05T04:13:00.097Z,100632.22
2023-01-05T04:14:02.219Z,100626.59
2023-01-05T04:15:04.781Z,100631.66
2023-01-05T04:16:07.929Z,100631.66
2023-01-05T04:17:11.181Z,100629.13
2023-01-05T04:18:13.636Z,100638.38
2023-01-05T04:19:15.156Z,100643.16
2023-01-05T04:20:17.613Z,100642.59
2023-01-05T04:21:19.381Z,100650.47
2023-01-05T04:22:26.985Z,100638.38
2023-01-05T04:23:29.372Z,100644.00
2023-01-05T04:24:31.072Z,100652.13
2023-01-05T04:25:34.797Z,100659.97
2023-01-05T04:26:46.220Z,100665.88
2023-01-05T04:27:47.767Z,100667.00
2023-01-05T04:28:50.401Z,100665.88
2023-01-05T04:29:54.528Z,100673.16
2023-01-05T04:30:56.204Z,100673.44
2023-01-05T04:31:59.134Z,100667.00
2023-01-05T04:33:01.479Z,100664.75
2023-01-05T04:34:03.998Z,100672.03
2023-01-05T04:35:11.030Z,100676.53
2023-01-05T04:36:14.748Z,100672.31
2023-01-05T04:37:16.244Z,100678.22
2023-01-05T04:38:17.769Z,100679.91
2023-01-05T04:39:19.345Z,100673.16
2023-01-05T04:40:20.863Z,100673.16
2023-01-05T04:41:26.667Z,100673.16
2023-01-05T04:42:28.812Z,100677.94
2023-01-05T04:43:30.420Z,100678.78
2023-01-05T04:44:34.662Z,100670.38
2023-01-05T04:45:38.893Z,100673.16
2023-01-05T04:46:41.937Z,100664.75
2023-01-05T04:47:45.730Z,100664.75
2023-01-05T04:48:51.354Z,100665.88
2023-01-05T04:49:55.053Z,100670.94
2023-01-05T04:50:56.895Z,100674.81
2023-01-05T04:52:04.571Z,100676.50
2023-01-05T04:53:08.360Z,100677.63
2023-01-05T04:54:12.776Z,100682.41
2023-01-05T04:55:16.220Z,100677.34
2023-01-05T04:56:18.875Z,100682.38
2023-01-05T04:57:22.419Z,100684.34
2023-01-05T04:58:24.088Z,100675.94
2023-01-05T04:59:28.097Z,100679.88
2023-01-05T05:00:32.931Z,100673.97
2023-01-05T05:01:34.979Z,100678.75
2023-01-05T05:02:36.960Z,100684.34
2023-01-05T05:03:38.525Z,100694.16
2023-01-05T05:04:43.725Z,100688.56
2023-01-05T05:05:45.729Z,100689.41
2023-01-05T05:06:47.978Z,100686.59
2023-01-05T05:07:50.283Z,100696.97
2023-01-05T05:08:52.463Z,100689.94
2023-01-05T05:09:54.016Z,100696.13
2023-01-05T05:10:56.023Z,100704.78
2023-01-05T05:11:58.017Z,100701.66
2023-01-05T05:12:59.775Z,100704.47
2023-01-05T05:14:01.235Z,100709.22
2023-01-05T05:15:03.643Z,100702.78
2023-01-05T05:16:05.551Z,100710.06
2023-01-05T05:17:08.370Z,100707.28
2023-01-05T05:18:10.117Z,100707.03
2023-01-05T05:19:13.754Z,100714.84
2023-01-05T05:20:15.470Z,100710.94
2023-01-05T05:21:17.882Z,100723.00
2023-01-05T05:22:19.409Z,100719.06
2023-01-05T05:23:21.758Z,100722.16
2023-01-05T05:24:23.334Z,100720.16
2023-01-05T05:25:25.548Z,100723.25
2023-01-05T05:26:27.062Z,100727.16
2023-01-05T05:27:29.336Z,100713.13
2023-01-05T05:28:30.796Z,100720.69
2023-01-05T05:29:32.263Z,100722.66
2023-01-05T05:30:33.802Z,100723.50
2023-01-05T05:31:36.056Z,100723.50
2023-01-05T05:32:42.518Z,100722.66
2023-01-05T05:33:45.775Z,100732.47
2023-01-05T05:34:47.250Z,100730.78
2023-01-05T05:35:48.743Z,100735.25
2023-01-05T05:36:50.357Z,100727.41
2023-01-05T05:37:56.346Z,100726.84
2023-01-05T05:38:58.864Z,100721.25
2023-01-05T05:40:00.432Z,100727.41
2023-01-05T05:41:01.904Z,100738.34
2023-01-05T05:42:03.440Z,100730.22
2023-01-05T05:43:05.005Z,100729.38
2023-01-05T05:44:06.753Z,100726.84
2023-01-05T05:45:08.619Z,100717.84
2023-01-05T05:46:10.130Z,100721.47
2023-01-05T05:47:11.739Z,100733.28
2023-01-05T05:48:13.211Z,100732.44
2023-01-05T05:49:14.778Z,100732.41
2023-01-05T05:50:16.296Z,100735.78
2023-01-05T05:51:21.408Z,100729.03
2023-01-05T05:52:22.939Z,100728.78
2023-01-05T05:53:24.387Z,100731.28
2023-01-05T05:54:25.911Z,100711.63
2023-01-05T05:55:27.442Z,100725.69
2023-01-05T05:56:29.591Z,100736.34
2023-01-05T05:57:31.142Z,100733.28
2023-01-05T05:58:32.607Z,100743.91
2023-01-05T05:59:34.102Z,100742.78
2023-01-05T06:00:37.475Z,100737.44
2023-01-05T06:01:39.053Z,100748.38
2023-01-05T06:02:40.925Z,100755.94
2023-01-05T06:03:42.564Z,100746.97
2023-01-05T06:04:44.055Z,100751.47
2023-01-05T06:05:45.681Z,100749.25
2023-01-05T06:06:47.172Z,100751.78
2023-01-05T06:07:48.699Z,100744.78
2023-01-05T06:08:50.159Z,100746.75
2023-01-05T06:09:51.611Z,100745.91
2023-01-05T06:10:53.160Z,100740.84
2023-01-05T06:11:54.711Z,100750.94
2023-01-05T06:12:56.434Z,100751.47
2023-01-05T06:13:58.008Z,100749.78
2023-01-05T06:14:59.497Z,100752.31
2023-01-05T06:16:00.998Z,100751.47
2023-01-05T06:17:02.456Z,100747.25
2023-01-05T06:18:04.128Z,100754.53
2023-01-05T06:19:05.660Z,100760.47
2023-01-05T06:20:08.389Z,100766.91
2023-01-05T06:21:09.878Z,100770.81
2023-01-05T06:22:11.366Z,100766.91
2023-01-05T06:23:12.924Z,100769.97
2023-01-05T06:24:15.203Z,100766.88
2023-01-05T06:25:16.703Z,100764.00
2023-01-05T06:26:18.231Z,100762.06
2023-01-05T06:27:19.762Z,100766.53
2023-01-05T06:28:21.206Z,100774.38
2023-01-05T06:29:22.697Z,100758.97
2023-01-05T06:30:24.451Z,100767.09
2023-01-05T06:31:25.993Z,100777.50
2023-01-05T06:32:27.553Z,100779.47
2023-01-05T06:33:29.013Z,100784.78
2023-01-05T06:34:30.600Z,100779.47
2023-01-05T06:35:32.040Z,100786.19
2023-01-05T06:36:33.494Z,100786.78
2023-01-05T06:37:35.149Z,100794.66
2023-01-05T06:38:37.066Z,100787.63
2023-01-05T06:39:38.560Z,100786.53
2023-01-05T06:40:41.220Z,100784.28
2023-01-05T06:41:42.669Z,100787.38
2023-01-05T06:42:44.243Z,100795.50
2023-01-05T06:43:45.757Z,100788.50
2023-01-05T06:44:47.223Z,100791.03
2023-01-05T06:45:48.795Z,100780.66
2023-01-05T06:46:50.409Z,100784.59
2023-01-05T06:47:51.879Z,100793.00
2023-01-05T06:48:53.403Z,100795.22
2023-01-05T06:49:55.078Z,100801.66
2023-01-05T06:50:56.568Z,100794.94
2023-01-05T06:51:58.010Z,100793.53
2023-01-05T06:52:59.613Z,100789.06
2023-01-05T06:54:01.159Z,100789.63
2023-01-05T06:55:03.468Z,100788.22
2023-01-05T06:56:05.138Z,100805.03
2023-01-05T06:57:06.870Z,100792.44
2023-01-05T06:58:08.409Z,100794.94
2023-01-05T06:59:10.991Z,100800.56
2023-01-05T07:00:12.728Z,100797.47
2023-01-05T07:01:14.296Z,100797.22
2023-01-05T07:02:16.191Z,100798.59
2023-01-05T07:03:17.675Z,100792.44
2023-01-05T07:04:19.226Z,100793.28
2023-01-05T07:05:20.853Z,100790.19
2023-01-05T07:06:22.324Z,100796.91
2023-01-05T07:07:23.783Z,100795.78
2023-01-05T07:08:25.278Z,100798.31
2023-01-05T07:09:26.771Z,100801.66
2023-01-05T07:10:28.431Z,100800.28
2023-01-05T07:11:30.074Z,100799.72
2023-01-05T07:12:31.528Z,100796.34
2023-01-05T07:13:32.976Z,100800.84
2023-01-05T07:14:34.452Z,100798.88
2023-01-05T07:15:35.935Z,100795.78
2023-01-05T07:16:37.494Z,100801.41
2023-01-05T07:17:39.054Z,100801.41
2023-01-05T07:18:40.527Z,100798.03
2023-01-05T07:19:41.994Z,100800.56
2023-01-05T07:20:43.428Z,100802.53
2023-01-05T07:21:44.907Z,100784.84
2023-01-05T07:22:46.549Z,100799.69
2023-01-05T07:23:48.044Z,100792.69
2023-01-05T07:24:49.643Z,100803.06
2023-01-05T07:25:51.080Z,100803.63
2023-01-05T07:26:52.609Z,100806.97
2023-01-05T07:27:54.095Z,100803.06
2023-01-05T07:28:55.646Z,100796.34
2023-01-05T07:29:57.169Z,100799.72
2023-01-05T07:30:58.658Z,100800.81
2023-01-05T07:32:00.203Z,100802.50
2023-01-05T07:33:01.907Z,100800.53
2023-01-05T07:34:03.388Z,100801.13
2023-01-05T07:35:05.788Z,100807.00
2023-01-05T07:36:07.445Z,100805.88
2023-01-05T07:37:09.011Z,100810.34
2023-01-05T07:38:10.568Z,100807.28
2023-01-05T07:39:12.088Z,100812.59
2023-01-05T07:40:13.628Z,100808.69
2023-01-05T07:41:15.853Z,100805.88
2023-01-05T07:42:17.293Z,100800.28
2023-01-05T07:43:18.780Z,100806.72
2023-01-05T07:44:20.287Z,100802.78
2023-01-05T07:45:21.890Z,100814.84
2023-01-05T07:46:23.625Z,100811.78
2023-01-05T07:47:25.189Z,100819.34
2023-01-05T07:48:26.655Z,100811.78
2023-01-05T07:49:29.454Z,100817.38
2023-01-05T07:50:32.221Z,100819.34
2023-01-05T07:51:33.773Z,100824.94
2023-01-05T07:52:35.245Z,100818.50
2023-01-05T07:53:43.848Z,100826.56
2023-01-05T07:54:46.282Z,100828.78
2023-01-05T07:55:55.006Z,100829.63
2023-01-05T07:56:56.598Z,100831.31
2023-01-05T07:57:58.061Z,100837.75
2023-01-05T07:58:59.554Z,100838.31
2023-01-05T08:00:01.162Z,100837.22
2023-01-05T08:01:06.243Z,100831.59
2023-01-05T08:02:08.847Z,100829.91
2023-01-05T08:03:10.387Z,100835.53
2023-01-05T08:04:11.956Z,100836.06
2023-01-05T08:05:13.538Z,100844.13
2023-01-05T08:06:15.518Z,100837.94
2023-01-05T08:07:16.978Z,100848.22
2023-01-05T08:08:24.143Z,100846.84
2023-01-05T08:09:44.841Z,100836.22
2023-01-05T08:10:46.459Z,100846.91
2023-01-05T08:11:47.933Z,100844.59
2023-01-05T08:13:08.227Z,100844.88
2023-01-05T08:14:09.706Z,100860.91
2023-01-05T08:15:11.175Z,100851.38
2023-01-05T08:16:12.717Z,100853.63
2023-01-05T08:17:14.257Z,100860.63
2023-01-05T08:18:15.778Z,100854.47
2023-01-05T08:19:17.340Z,100860.63
2023-01-05T08:20:18.802Z,100858.97
2023-01-05T08:21:20.268Z,100855.03
2023-01-05T08:22:21.877Z,100858.69
2023-01-05T08:23:25.735Z,100866.81
2023-01-05T08:24:28.053Z,100855.63
2023-01-05T08:25:29.537Z,100861.78
2023-01-05T08:26:31.188Z,100865.47
2023-01-05T08:27:33.685Z,100864.03
2023-01-05T08:28:35.939Z,100865.69
2023-01-05T08:29:37.512Z,100872.69
2023-01-05T08:30:39.000Z,100869.06
2023-01-05T08:31:40.601Z,100881.41
2023-01-05T08:32:42.115Z,100880.31
2023-01-05T08:33:43.841Z,100887.59
2023-01-05T08:34:49.114Z,100888.44
2023-01-05T08:35:53.462Z,100888.44
2023-01-05T08:36:54.941Z,100891.50
2023-01-05T08:37:56.446Z,100896.28
2023-01-05T08:38:57.983Z,100893.72
2023-01-05T08:40:00.357Z,100894.56
2023-01-05T08:41:02.055Z,100895.16
2023-01-05T08:42:03.576Z,100897.13
2023-01-05T08:43:05.671Z,100898.47
2023-01-05T08:44:08.237Z,100892.03
2023-01-05T08:45:10.240Z,100900.50
2023-01-05T08:46:11.834Z,100899.09
2023-01-05T08:47:13.306Z,100907.81
2023-01-05T08:48:14.821Z,100906.69
2023-01-05T08:49:16.325Z,100902.19
2023-01-05T08:50:17.796Z,100898.28
2023-01-05T08:51:19.347Z,100906.69
2023-01-05T08:52:20.832Z,100898.28
2023-01-05T08:53:22.353Z,100899.41
2023-01-05T08:54:23.858Z,100904.72
2023-01-05T08:55:25.317Z,100898.28
2023-01-05T08:56:27.238Z,100902.50
2023-01-05T08:57:30.096Z,100893.84
2023-01-05T08:58:31.536Z,100904.78
2023-01-05T08:59:33.049Z,100901.69
2023-01-05T09:00:34.750Z,100901.69
2023-01-05T09:01:37.037Z,100894.97
2023-01-05T09:02:38.925Z,100905.91
2023-01-05T09:03:40.584Z,100898.34
2023-01-05T09:04:42.099Z,100897.78
2023-01-05T09:05:43.922Z,100902.00
2023-01-05T09:06:45.379Z,100894.72
2023-01-05T09:07:46.868Z,100906.22
2023-01-05T09:08:48.640Z,100903.97
2023-01-05T09:09:50.123Z,100903.97
2023-01-05T09:10:51.614Z,100901.16
2023-01-05T09:11:53.159Z,100901.69
2023-01-05T09:12:54.670Z,100908.72
2023-01-05T09:13:57.002Z,100911.25
2023-01-05T09:14:58.541Z,100914.34
2023-01-05T09:16:09.612Z,100915.78
2023-01-05T09:17:11.213Z,100918.03
2023-01-05T09:18:12.783Z,100915.81
2023-01-05T09:19:14.258Z,100914.97
2023-01-05T09:20:15.829Z,100913.28
2023-01-05T09:21:17.310Z,100914.09
2023-01-05T09:22:19.067Z,100920.78
2023-01-05T09:23:20.776Z,100916.91
2023-01-05T09:24:22.297Z,100914.94
2023-01-05T09:25:23.860Z,100911.31
2023-01-05T09:26:25.384Z,100909.03
2023-01-05T09:27:26.917Z,100925.56
2023-01-05T09:28:28.391Z,100923.84
2023-01-05T09:29:29.835Z,100924.13
2023-01-05T09:30:38.503Z,100916.28
2023-01-05T09:31:43.677Z,100914.91
2023-01-05T09:32:45.185Z,100917.41
2023-01-05T09:33:46.827Z,100921.88
2023-01-05T09:34:48.285Z,100925.25
2023-01-05T09:35:53.380Z,100920.50
2023-01-05T09:36:54.880Z,100923.28
2023-01-05T09:37:56.348Z,100918.53
2023-01-05T09:38:57.896Z,100921.63
2023-01-05T09:39:59.465Z,100916.84
2023-01-05T09:41:03.930Z,100919.91
2023-01-05T09:42:06.228Z,100931.38
2023-01-05T09:43:09.015Z,100931.38
2023-01-05T09:44:10.463Z,100928.03
2023-01-05T09:45:11.981Z,100928.59
2023-01-05T09:46:14.430Z,100922.13
2023-01-05T09:47:20.869Z,100934.19
2023-01-05T09:48:22.342Z,100930.28
2023-01-05T09:49:23.825Z,100921.31
2023-01-05T09:50:25.821Z,100936.47
2023-01-05T09:51:28.798Z,100939.28
2023-01-05T09:52:35.995Z,100939.00
2023-01-05T09:53:39.607Z,100926.66
2023-01-05T09:54:41.113Z,100931.13
2023-01-05T09:55:42.728Z,100929.19
2023-01-05T09:58:16.805Z,100933.38
2023-01-05T09:59:24.721Z,100938.72
2023-01-05T10:00:26.248Z,100937.03
2023-01-05T10:01:27.993Z,100926.94
2023-01-05T10:02:58.864Z,100933.38
2023-01-05T10:04:04.313Z,100939.25
2023-01-05T10:05:06.933Z,100942.06
2023-01-05T10:06:12.835Z,100934.81
2023-01-05T10:07:19.679Z,100938.78
2023-01-05T10:08:38.186Z,100928.72
2023-01-05T10:09:39.660Z,100918.38
2023-01-05T10:10:41.104Z,100928.19
2023-01-05T10:12:12.229Z,100927.66
2023-01-05T10:13:21.876Z,100936.66
2023-01-05T10:14:24.827Z,100927.97
2023-01-05T10:15:26.384Z,100936.66
2023-01-05T10:16:29.781Z,100930.50
2023-01-05T10:17:42.229Z,100930.50
2023-01-05T10:18:44.943Z,100933.88
2023-01-05T10:19:46.980Z,100929.38
2023-01-05T10:21:07.275Z,100927.47
2023-01-05T10:22:17.838Z,100931.41
2023-01-05T10:23:19.448Z,100931.13
2023-01-05T10:24:26.925Z,100930.06
2023-01-05T10:25:39.288Z,100931.19
2023-01-05T10:27:23.533Z,100933.19
2023-01-05T10:28:28.890Z,100927.84
2023-01-05T10:29:32.713Z,100926.72
2023-01-05T10:30:41.140Z,100928.16
2023-01-05T10:31:42.604Z,100923.38
2023-01-05T10:32:49.967Z,100921.41
2023-01-05T10:33:56.680Z,100918.63
2023-01-05T10:36:00.187Z,100920.56
2023-01-05T10:37:10.081Z,100923.94
2023-01-05T10:38:13.548Z,100914.69
2023-01-05T10:39:18.062Z,100933.47
2023-01-05T10:40:22.913Z,100927.88
2023-01-05T10:41:33.488Z,100923.38
2023-01-05T10:42:34.987Z,100918.91
2023-01-05T10:43:45.192Z,100930.41
2023-01-05T10:44:46.679Z,100929.00
2023-01-05T10:46:19.804Z,100934.06
2023-01-05T10:47:09.982Z,100930.69
2023-01-05T10:48:14.143Z,100934.63
2023-01-05T10:49:19.895Z,100934.91
2023-01-05T10:50:26.444Z,100946.44
2023-01-05T10:51:30.285Z,100942.50
2023-01-05T10:52:31.799Z,100936.91
2023-01-05T10:53:37.024Z,100935.78
2023-01-05T10:54:39.375Z,100941.97
2023-01-05T10:55:45.337Z,100941.97
2023-01-05T10:56:46.867Z,100944.19
2023-01-05T10:57:48.330Z,100937.19
2023-01-05T10:58:49.806Z,100948.38
2023-01-05T11:00:00.167Z,100944.16
2023-01-05T11:01:06.992Z,100940.81
2023-01-05T11:02:11.590Z,100943.66
2023-01-05T11:03:13.836Z,100937.47
2023-01-05T11:05:38.310Z,100946.47
2023-01-05T11:06:39.804Z,100944.75
2023-01-05T11:07:54.237Z,100948.13
2023-01-05T11:08:55.768Z,100941.13
2023-01-05T11:09:57.223Z,100944.22
2023-01-05T11:11:02.961Z,100942.53
2023-01-05T11:12:05.450Z,100945.31
2023-01-05T11:13:15.844Z,100944.19
2023-01-05T11:14:17.355Z,100943.63
2023-01-05T11:15:19.723Z,100950.94
2023-01-05T11:16:22.235Z,100941.41
2023-01-05T11:17:24.508Z,100945.03
2023-01-05T11:18:26.905Z,100941.97
2023-01-05T11:19:47.382Z,100950.94
2023-01-05T11:21:09.268Z,100951.22
2023-01-05T11:22:29.350Z,100950.38
2023-01-05T11:23:40.978Z,100948.19
2023-01-05T11:24:42.467Z,100949.84
2023-01-05T11:25:44.035Z,100948.75
2023-01-05T11:26:48.857Z,100947.06
2023-01-05T11:28:09.296Z,100950.13
2023-01-05T11:29:13.245Z,100947.56
2023-01-05T11:30:14.815Z,100947.56
2023-01-05T11:31:16.530Z,100949.84
2023-01-05T11:32:18.023Z,100947.06
2023-01-05T11:33:25.454Z,100944.81
2023-01-05T11:34:36.677Z,100947.34
2023-01-05T11:35:38.207Z,100945.38
2023-01-05T11:36:39.745Z,100952.66
2023-01-05T11:37:43.453Z,100949.59
2023-01-05T11:38:44.958Z,100951.81
2023-01-05T11:39:46.393Z,100932.13
2023-01-05T11:40:47.921Z,100956.31
2023-01-05T11:41:49.801Z,100956.88
2023-01-05T11:42:51.327Z,100954.34
2023-01-05T11:43:52.902Z,100954.06
2023-01-05T11:44:55.626Z,100948.19
2023-01-05T11:45:58.359Z,100959.13
2023-01-05T11:46:59.866Z,100950.41
2023-01-05T11:48:03.385Z,100958.00
2023-01-05T11:49:04.882Z,100949.59
2023-01-05T11:50:09.869Z,100956.03
2023-01-05T11:51:20.677Z,100948.19
2023-01-05T11:52:26.948Z,100958.28
2023-01-05T11:53:34.454Z,100956.03
2023-01-05T11:54:36.687Z,100949.63
2023-01-05T11:55:39.852Z,100959.72
2023-01-05T11:56:41.416Z,100963.09
2023-01-05T11:57:42.885Z,100960.56
2023-01-05T11:58:45.388Z,100955.50
2023-01-05T11:59:47.119Z,100960.84
2023-01-05T12:01:07.603Z,100960.56
2023-01-05T12:02:32.657Z,100961.97
2023-01-05T12:03:43.711Z,100958.88
2023-01-05T12:04:51.679Z,100962.28
2023-01-05T12:05:56.975Z,100958.88
2023-01-05T12:06:59.231Z,100957.75
2023-01-05T12:08:09.227Z,100957.75
2023-01-05T12:09:10.866Z,100964.78
2023-01-05T12:10:12.428Z,100967.31
2023-01-05T12:11:19.034Z,100962.53
2023-01-05T12:12:48.073Z,100962.25
2023-01-05T12:14:01.624Z,100962.81
2023-01-05T12:15:06.055Z,100963.91
2023-01-05T12:16:19.900Z,100962.81
2023-01-05T12:17:43.898Z,100971.22